sensor_id;sensor_type;location;lat;lon;timestamp;temperature;humidity
18541;DHT22;9400;50.924;5.328;2022-12-18T00:01:05;-4.50;99.90
18541;DHT22;9400;50.924;5.328;2022-12-18T00:03:40;-4.50;99.90
18541;DHT22;9400;50.924;5.328;2022-12-18T00:06:08;-4.40;99.90
18541;DHT22;9400;50.924;5.328;2022-12-18T00:08:36;-4.30;99.90
18541;DHT22;9400;50.924;5.328;2022-12-18T00:11:04;-4.30;99.90
18541;DHT22;9400;50.924;5.328;2022-12-18T00:13:33;-4.30;99.90
18541;DHT22;9400;50.924;5.328;2022-12-18T00:16:02;-4.30;99.90
18541;DHT22;9400;50.924;5.328;2022-12-18T00:18:30;-4.20;99.90
18541;DHT22;9400;50.924;5.328;2022-12-18T00:20:59;-4.20;99.90
18541;DHT22;9400;50.924;5.328;2022-12-18T00:23:28;-4.20;99.90
18541;DHT22;9400;50.924;5.328;2022-12-18T00:25:59;-4.20;99.90
18541;DHT22;9400;50.924;5.328;2022-12-18T00:28:27;-4.30;99.90
18541;DHT22;9400;50.924;5.328;2022-12-18T00:31:02;-4.30;99.90
18541;DHT22;9400;50.924;5.328;2022-12-18T00:33:29;-4.30;99.90
18541;DHT22;9400;50.924;5.328;2022-12-18T00:36:01;-4.40;99.90
18541;DHT22;9400;50.924;5.328;2022-12-18T00:38:29;-4.40;99.90
18541;DHT22;9400;50.924;5.328;2022-12-18T00:40:57;-4.50;99.90
18541;DHT22;9400;50.924;5.328;2022-12-18T00:43:25;-4.60;99.90
18541;DHT22;9400;50.924;5.328;2022-12-18T00:45:51;-4.70;99.90
18541;DHT22;9400;50.924;5.328;2022-12-18T00:48:20;-4.80;99.90
18541;DHT22;9400;50.924;5.328;2022-12-18T00:50:48;-4.80;99.90
18541;DHT22;9400;50.924;5.328;2022-12-18T00:53:16;-4.80;99.90
18541;DHT22;9400;50.924;5.328;2022-12-18T00:55:44;-4.80;99.90
18541;DHT22;9400;50.924;5.328;2022-12-18T00:58:13;-4.60;99.90
18541;DHT22;9400;50.924;5.328;2022-12-18T01:00:41;-4.60;99.90
18541;DHT22;9400;50.924;5.328;2022-12-18T01:03:10;-4.60;99.90
18541;DHT22;9400;50.924;5.328;2022-12-18T01:05:42;-4.50;99.90
18541;DHT22;9400;50.924;5.328;2022-12-18T01:08:09;-4.50;99.90
18541;DHT22;9400;50.924;5.328;2022-12-18T01:10:40;-4.60;99.90
18541;DHT22;9400;50.924;5.328;2022-12-18T01:13:08;-4.70;99.90
18541;DHT22;9400;50.924;5.328;2022-12-18T01:15:36;-4.60;99.90
18541;DHT22;9400;50.924;5.328;2022-12-18T01:18:04;-4.70;99.90
18541;DHT22;9400;50.924;5.328;2022-12-18T01:20:31;-4.70;99.90
18541;DHT22;9400;50.924;5.328;2022-12-18T01:23:01;-4.60;99.90
18541;DHT22;9400;50.924;5.328;2022-12-18T01:25:28;-4.70;99.90
18541;DHT22;9400;50.924;5.328;2022-12-18T01:27:56;-4.70;99.90
18541;DHT22;9400;50.924;5.328;2022-12-18T01:30:24;-4.70;99.90
18541;DHT22;9400;50.924;5.328;2022-12-18T01:32:51;-4.70;99.90
18541;DHT22;9400;50.924;5.328;2022-12-18T01:35:19;-4.70;99.90
18541;DHT22;9400;50.924;5.328;2022-12-18T01:37:47;-4.70;99.90
18541;DHT22;9400;50.924;5.328;2022-12-18T01:40:16;-4.70;99.90
18541;DHT22;9400;50.924;5.328;2022-12-18T01:42:44;-4.70;99.90
18541;DHT22;9400;50.924;5.328;2022-12-18T01:45:26;-4.70;99.90
18541;DHT22;9400;50.924;5.328;2022-12-18T01:47:55;-4.80;99.90
18541;DHT22;9400;50.924;5.328;2022-12-18T01:50:27;-4.70;99.90
18541;DHT22;9400;50.924;5.328;2022-12-18T01:52:58;-4.70;99.90
18541;DHT22;9400;50.924;5.328;2022-12-18T01:55:31;-4.70;99.90
18541;DHT22;9400;50.924;5.328;2022-12-18T01:57:59;-4.80;99.90
18541;DHT22;9400;50.924;5.328;2022-12-18T02:00:27;-4.80;99.90
18541;DHT22;9400;50.924;5.328;2022-12-18T02:02:56;-4.80;99.90
18541;DHT22;9400;50.924;5.328;2022-12-18T02:05:36;-4.80;99.90
18541;DHT22;9400;50.924;5.328;2022-12-18T02:08:09;-4.80;99.90
18541;DHT22;9400;50.924;5.328;2022-12-18T02:10:45;-4.90;99.90
18541;DHT22;9400;50.924;5.328;2022-12-18T02:13:19;-4.90;99.90
18541;DHT22;9400;50.924;5.328;2022-12-18T02:15:54;-4.90;99.90
18541;DHT22;9400;50.924;5.328;2022-12-18T02:18:27;-4.90;99.90
18541;DHT22;9400;50.924;5.328;2022-12-18T02:21:01;-4.90;99.90
18541;DHT22;9400;50.924;5.328;2022-12-18T02:26:30;-4.90;99.90
18541;DHT22;9400;50.924;5.328;2022-12-18T02:29:03;-4.90;99.90
18541;DHT22;9400;50.924;5.328;2022-12-18T02:31:38;-4.90;99.90
18541;DHT22;9400;50.924;5.328;2022-12-18T02:34:08;-5.00;99.90
18541;DHT22;9400;50.924;5.328;2022-12-18T02:36:40;-5.00;99.90
18541;DHT22;9400;50.924;5.328;2022-12-18T02:39:10;-4.90;99.90
18541;DHT22;9400;50.924;5.328;2022-12-18T02:41:40;-5.00;99.90
18541;DHT22;9400;50.924;5.328;2022-12-18T02:44:09;-4.90;99.90
18541;DHT22;9400;50.924;5.328;2022-12-18T02:46:39;-4.90;99.90
18541;DHT22;9400;50.924;5.328;2022-12-18T02:49:17;-4.90;99.90
18541;DHT22;9400;50.924;5.328;2022-12-18T02:51:53;-4.90;99.90
18541;DHT22;9400;50.924;5.328;2022-12-18T02:54:45;-4.90;99.90
18541;DHT22;9400;50.924;5.328;2022-12-18T02:57:23;-4.90;99.90
18541;DHT22;9400;50.924;5.328;2022-12-18T02:59:58;-5.10;99.90
18541;DHT22;9400;50.924;5.328;2022-12-18T03:02:38;-5.10;99.90
18541;DHT22;9400;50.924;5.328;2022-12-18T03:05:12;-5.10;99.90
18541;DHT22;9400;50.924;5.328;2022-12-18T03:07:44;-5.20;99.90
18541;DHT22;9400;50.924;5.328;2022-12-18T03:10:16;-5.20;99.90
18541;DHT22;9400;50.924;5.328;2022-12-18T03:12:51;-5.20;99.90
18541;DHT22;9400;50.924;5.328;2022-12-18T03:15:23;-5.40;99.90
18541;DHT22;9400;50.924;5.328;2022-12-18T03:17:56;-5.50;99.90
18541;DHT22;9400;50.924;5.328;2022-12-18T03:20:26;-5.60;99.90
18541;DHT22;9400;50.924;5.328;2022-12-18T03:22:59;-5.60;99.90
18541;DHT22;9400;50.924;5.328;2022-12-18T03:25:31;-5.60;99.90
18541;DHT22;9400;50.924;5.328;2022-12-18T03:28:03;-5.60;99.90
18541;DHT22;9400;50.924;5.328;2022-12-18T03:30:37;-5.50;99.90
18541;DHT22;9400;50.924;5.328;2022-12-18T03:33:09;-5.50;99.90
18541;DHT22;9400;50.924;5.328;2022-12-18T03:35:41;-5.60;99.90
18541;DHT22;9400;50.924;5.328;2022-12-18T03:38:09;-5.50;99.90
18541;DHT22;9400;50.924;5.328;2022-12-18T03:40:46;-5.50;99.90
18541;DHT22;9400;50.924;5.328;2022-12-18T03:43:22;-5.50;99.90
18541;DHT22;9400;50.924;5.328;2022-12-18T03:45:54;-5.50;99.90
18541;DHT22;9400;50.924;5.328;2022-12-18T03:48:31;-5.50;99.90
18541;DHT22;9400;50.924;5.328;2022-12-18T03:51:05;-5.60;99.90
18541;DHT22;9400;50.924;5.328;2022-12-18T03:53:39;-5.60;99.90
18541;DHT22;9400;50.924;5.328;2022-12-18T03:56:09;-5.50;99.90
18541;DHT22;9400;50.924;5.328;2022-12-18T03:58:41;-5.50;99.90
18541;DHT22;9400;50.924;5.328;2022-12-18T04:01:13;-5.50;99.90
18541;DHT22;9400;50.924;5.328;2022-12-18T04:03:43;-5.50;99.90
18541;DHT22;9400;50.924;5.328;2022-12-18T04:06:14;-5.40;99.90
18541;DHT22;9400;50.924;5.328;2022-12-18T04:08:43;-5.40;99.90
18541;DHT22;9400;50.924;5.328;2022-12-18T04:11:11;-5.40;99.90
18541;DHT22;9400;50.924;5.328;2022-12-18T04:13:42;-5.40;99.90
18541;DHT22;9400;50.924;5.328;2022-12-18T04:16:10;-5.40;99.90
18541;DHT22;9400;50.924;5.328;2022-12-18T04:18:38;-5.40;99.90
18541;DHT22;9400;50.924;5.328;2022-12-18T04:21:06;-5.40;99.90
18541;DHT22;9400;50.924;5.328;2022-12-18T04:23:33;-5.30;99.90
18541;DHT22;9400;50.924;5.328;2022-12-18T04:26:01;-5.40;99.90
18541;DHT22;9400;50.924;5.328;2022-12-18T04:28:29;-5.40;99.90
18541;DHT22;9400;50.924;5.328;2022-12-18T04:30:58;-5.40;99.90
18541;DHT22;9400;50.924;5.328;2022-12-18T04:33:25;-5.30;99.90
18541;DHT22;9400;50.924;5.328;2022-12-18T04:35:53;-5.40;99.90
18541;DHT22;9400;50.924;5.328;2022-12-18T04:38:21;-5.40;99.90
18541;DHT22;9400;50.924;5.328;2022-12-18T04:40:48;-5.40;99.90
18541;DHT22;9400;50.924;5.328;2022-12-18T04:43:16;-5.50;99.90
18541;DHT22;9400;50.924;5.328;2022-12-18T04:45:43;-5.40;99.90
18541;DHT22;9400;50.924;5.328;2022-12-18T04:48:13;-5.40;99.90
18541;DHT22;9400;50.924;5.328;2022-12-18T04:50:40;-5.40;99.90
18541;DHT22;9400;50.924;5.328;2022-12-18T04:53:07;-5.40;99.90
18541;DHT22;9400;50.924;5.328;2022-12-18T04:55:34;-5.40;99.90
18541;DHT22;9400;50.924;5.328;2022-12-18T04:58:02;-5.30;99.90
18541;DHT22;9400;50.924;5.328;2022-12-18T05:00:29;-5.40;99.90
18541;DHT22;9400;50.924;5.328;2022-12-18T05:02:57;-5.30;99.90
18541;DHT22;9400;50.924;5.328;2022-12-18T05:05:29;-5.30;99.90
18541;DHT22;9400;50.924;5.328;2022-12-18T05:07:56;-5.30;99.90
18541;DHT22;9400;50.924;5.328;2022-12-18T05:10:24;-5.30;99.90
18541;DHT22;9400;50.924;5.328;2022-12-18T05:12:52;-5.40;99.90
18541;DHT22;9400;50.924;5.328;2022-12-18T05:15:27;-5.40;99.90
18541;DHT22;9400;50.924;5.328;2022-12-18T05:17:56;-5.40;99.90
18541;DHT22;9400;50.924;5.328;2022-12-18T05:20:25;-5.60;99.90
18541;DHT22;9400;50.924;5.328;2022-12-18T05:22:54;-5.70;99.90
18541;DHT22;9400;50.924;5.328;2022-12-18T05:25:22;-5.70;99.90
18541;DHT22;9400;50.924;5.328;2022-12-18T05:27:50;-5.70;99.90
18541;DHT22;9400;50.924;5.328;2022-12-18T05:30:18;-5.80;99.90
18541;DHT22;9400;50.924;5.328;2022-12-18T05:32:45;-5.80;99.90
18541;DHT22;9400;50.924;5.328;2022-12-18T05:35:13;-5.70;99.90
18541;DHT22;9400;50.924;5.328;2022-12-18T05:37:41;-5.70;99.90
18541;DHT22;9400;50.924;5.328;2022-12-18T05:40:11;-5.60;99.90
18541;DHT22;9400;50.924;5.328;2022-12-18T05:42:38;-5.70;99.90
18541;DHT22;9400;50.924;5.328;2022-12-18T05:45:07;-5.70;99.90
18541;DHT22;9400;50.924;5.328;2022-12-18T05:47:35;-5.70;99.90
18541;DHT22;9400;50.924;5.328;2022-12-18T05:50:03;-5.80;99.90
18541;DHT22;9400;50.924;5.328;2022-12-18T05:52:30;-5.80;99.90
18541;DHT22;9400;50.924;5.328;2022-12-18T05:54:58;-5.70;99.90
18541;DHT22;9400;50.924;5.328;2022-12-18T05:57:27;-5.70;99.90
18541;DHT22;9400;50.924;5.328;2022-12-18T05:59:55;-5.60;99.90
18541;DHT22;9400;50.924;5.328;2022-12-18T06:02:22;-5.60;99.90
18541;DHT22;9400;50.924;5.328;2022-12-18T06:04:50;-5.70;99.90
18541;DHT22;9400;50.924;5.328;2022-12-18T06:07:17;-5.80;99.90
18541;DHT22;9400;50.924;5.328;2022-12-18T06:09:46;-5.80;99.90
18541;DHT22;9400;50.924;5.328;2022-12-18T06:12:13;-5.80;99.90
18541;DHT22;9400;50.924;5.328;2022-12-18T06:14:45;-5.90;99.90
18541;DHT22;9400;50.924;5.328;2022-12-18T06:17:12;-6.00;99.90
18541;DHT22;9400;50.924;5.328;2022-12-18T06:19:40;-6.00;99.90
18541;DHT22;9400;50.924;5.328;2022-12-18T06:22:08;-5.90;99.90
18541;DHT22;9400;50.924;5.328;2022-12-18T06:24:35;-5.90;99.90
18541;DHT22;9400;50.924;5.328;2022-12-18T06:27:03;-5.80;99.90
18541;DHT22;9400;50.924;5.328;2022-12-18T06:29:31;-5.80;99.90
18541;DHT22;9400;50.924;5.328;2022-12-18T06:31:59;-5.80;99.90
18541;DHT22;9400;50.924;5.328;2022-12-18T06:34:27;-5.80;99.90
18541;DHT22;9400;50.924;5.328;2022-12-18T06:36:56;-5.80;99.90
18541;DHT22;9400;50.924;5.328;2022-12-18T06:39:23;-5.70;99.90
18541;DHT22;9400;50.924;5.328;2022-12-18T06:41:51;-5.80;99.90
18541;DHT22;9400;50.924;5.328;2022-12-18T06:44:19;-6.00;99.90
18541;DHT22;9400;50.924;5.328;2022-12-18T06:46:47;-5.90;99.90
18541;DHT22;9400;50.924;5.328;2022-12-18T06:49:16;-5.90;99.90
18541;DHT22;9400;50.924;5.328;2022-12-18T06:51:44;-5.90;99.90
18541;DHT22;9400;50.924;5.328;2022-12-18T06:54:12;-5.90;99.90
18541;DHT22;9400;50.924;5.328;2022-12-18T06:56:41;-5.80;99.90
18541;DHT22;9400;50.924;5.328;2022-12-18T06:59:09;-5.80;99.90
18541;DHT22;9400;50.924;5.328;2022-12-18T07:01:36;-5.80;99.90
18541;DHT22;9400;50.924;5.328;2022-12-18T07:04:05;-5.80;99.90
18541;DHT22;9400;50.924;5.328;2022-12-18T07:06:34;-5.80;99.90
18541;DHT22;9400;50.924;5.328;2022-12-18T07:09:02;-5.80;99.90
18541;DHT22;9400;50.924;5.328;2022-12-18T07:11:32;-5.70;99.90
18541;DHT22;9400;50.924;5.328;2022-12-18T07:14:00;-5.70;99.90
18541;DHT22;9400;50.924;5.328;2022-12-18T07:16:27;-5.80;99.90
18541;DHT22;9400;50.924;5.328;2022-12-18T07:18:56;-5.80;99.90
18541;DHT22;9400;50.924;5.328;2022-12-18T07:21:24;-5.70;99.90
18541;DHT22;9400;50.924;5.328;2022-12-18T07:23:54;-5.80;99.90
18541;DHT22;9400;50.924;5.328;2022-12-18T07:26:22;-5.80;99.90
18541;DHT22;9400;50.924;5.328;2022-12-18T07:28:55;-5.80;99.90
18541;DHT22;9400;50.924;5.328;2022-12-18T07:31:24;-5.80;99.90
18541;DHT22;9400;50.924;5.328;2022-12-18T07:33:52;-5.80;99.90
18541;DHT22;9400;50.924;5.328;2022-12-18T07:36:23;-5.90;99.90
18541;DHT22;9400;50.924;5.328;2022-12-18T07:38:53;-6.00;99.90
18541;DHT22;9400;50.924;5.328;2022-12-18T07:41:20;-6.00;99.90
18541;DHT22;9400;50.924;5.328;2022-12-18T07:43:48;-6.00;99.90
18541;DHT22;9400;50.924;5.328;2022-12-18T07:46:16;-6.00;99.90
18541;DHT22;9400;50.924;5.328;2022-12-18T07:48:44;-6.10;99.90
18541;DHT22;9400;50.924;5.328;2022-12-18T07:51:12;-6.00;99.90
18541;DHT22;9400;50.924;5.328;2022-12-18T07:53:40;-5.80;99.90
18541;DHT22;9400;50.924;5.328;2022-12-18T07:56:11;-5.80;99.90
18541;DHT22;9400;50.924;5.328;2022-12-18T07:58:39;-5.70;99.90
18541;DHT22;9400;50.924;5.328;2022-12-18T08:01:08;-5.60;99.90
18541;DHT22;9400;50.924;5.328;2022-12-18T08:03:36;-5.70;99.90
18541;DHT22;9400;50.924;5.328;2022-12-18T08:06:05;-5.70;99.90
18541;DHT22;9400;50.924;5.328;2022-12-18T08:08:34;-5.80;99.90
18541;DHT22;9400;50.924;5.328;2022-12-18T08:11:01;-5.80;99.90
18541;DHT22;9400;50.924;5.328;2022-12-18T08:13:31;-5.70;99.90
18541;DHT22;9400;50.924;5.328;2022-12-18T08:16:00;-5.70;99.90
18541;DHT22;9400;50.924;5.328;2022-12-18T08:18:28;-5.60;99.90
18541;DHT22;9400;50.924;5.328;2022-12-18T08:20:56;-5.60;99.90
18541;DHT22;9400;50.924;5.328;2022-12-18T08:23:24;-5.50;99.90
18541;DHT22;9400;50.924;5.328;2022-12-18T08:25:54;-5.40;99.90
18541;DHT22;9400;50.924;5.328;2022-12-18T08:28:22;-5.30;99.90
18541;DHT22;9400;50.924;5.328;2022-12-18T08:30:53;-5.30;99.90
18541;DHT22;9400;50.924;5.328;2022-12-18T08:33:21;-5.20;99.90
18541;DHT22;9400;50.924;5.328;2022-12-18T08:35:49;-5.20;99.90
18541;DHT22;9400;50.924;5.328;2022-12-18T08:38:17;-5.00;99.90
18541;DHT22;9400;50.924;5.328;2022-12-18T08:40:44;-5.00;99.90
18541;DHT22;9400;50.924;5.328;2022-12-18T08:43:12;-4.90;99.90
18541;DHT22;9400;50.924;5.328;2022-12-18T08:45:58;-4.90;99.90
18541;DHT22;9400;50.924;5.328;2022-12-18T08:48:25;-4.90;99.90
18541;DHT22;9400;50.924;5.328;2022-12-18T08:50:56;-4.90;99.90
18541;DHT22;9400;50.924;5.328;2022-12-18T08:53:24;-5.00;99.90
18541;DHT22;9400;50.924;5.328;2022-12-18T08:55:52;-4.90;99.90
18541;DHT22;9400;50.924;5.328;2022-12-18T08:58:20;-4.80;99.90
18541;DHT22;9400;50.924;5.328;2022-12-18T09:00:48;-4.80;99.90
18541;DHT22;9400;50.924;5.328;2022-12-18T09:03:18;-4.80;99.90
18541;DHT22;9400;50.924;5.328;2022-12-18T09:05:48;-4.70;99.90
18541;DHT22;9400;50.924;5.328;2022-12-18T09:08:16;-4.60;99.90
18541;DHT22;9400;50.924;5.328;2022-12-18T09:10:44;-4.50;99.90
18541;DHT22;9400;50.924;5.328;2022-12-18T09:13:13;-4.40;99.90
18541;DHT22;9400;50.924;5.328;2022-12-18T09:15:41;-4.20;99.90
18541;DHT22;9400;50.924;5.328;2022-12-18T09:18:12;-4.10;99.90
18541;DHT22;9400;50.924;5.328;2022-12-18T09:20:44;-4.00;99.90
18541;DHT22;9400;50.924;5.328;2022-12-18T09:23:12;-3.90;99.90
18541;DHT22;9400;50.924;5.328;2022-12-18T09:25:40;-3.70;99.90
18541;DHT22;9400;50.924;5.328;2022-12-18T09:28:12;-3.70;99.90
18541;DHT22;9400;50.924;5.328;2022-12-18T09:30:40;-3.60;99.90
18541;DHT22;9400;50.924;5.328;2022-12-18T09:33:10;-3.60;99.90
18541;DHT22;9400;50.924;5.328;2022-12-18T09:35:38;-3.50;99.90
18541;DHT22;9400;50.924;5.328;2022-12-18T09:38:08;-3.40;99.90
18541;DHT22;9400;50.924;5.328;2022-12-18T09:40:42;-3.30;99.90
18541;DHT22;9400;50.924;5.328;2022-12-18T09:43:15;-3.20;99.90
18541;DHT22;9400;50.924;5.328;2022-12-18T09:45:46;-3.10;99.90
18541;DHT22;9400;50.924;5.328;2022-12-18T09:48:19;-3.00;99.90
18541;DHT22;9400;50.924;5.328;2022-12-18T09:50:47;-3.00;99.90
18541;DHT22;9400;50.924;5.328;2022-12-18T09:53:21;-3.00;99.90
18541;DHT22;9400;50.924;5.328;2022-12-18T09:55:51;-3.00;99.90
18541;DHT22;9400;50.924;5.328;2022-12-18T09:58:26;-2.90;99.90
18541;DHT22;9400;50.924;5.328;2022-12-18T10:00:56;-2.90;99.90
18541;DHT22;9400;50.924;5.328;2022-12-18T10:03:23;-2.90;99.90
18541;DHT22;9400;50.924;5.328;2022-12-18T10:06:00;-2.90;99.90
18541;DHT22;9400;50.924;5.328;2022-12-18T10:08:37;-2.80;99.90
18541;DHT22;9400;50.924;5.328;2022-12-18T10:11:27;-2.70;99.90
18541;DHT22;9400;50.924;5.328;2022-12-18T10:13:58;-2.60;99.90
18541;DHT22;9400;50.924;5.328;2022-12-18T10:16:35;-2.50;99.90
18541;DHT22;9400;50.924;5.328;2022-12-18T10:19:19;-2.50;99.90
18541;DHT22;9400;50.924;5.328;2022-12-18T10:21:56;-2.50;99.90
18541;DHT22;9400;50.924;5.328;2022-12-18T10:24:33;-2.30;99.90
18541;DHT22;9400;50.924;5.328;2022-12-18T10:27:13;-2.20;99.90
18541;DHT22;9400;50.924;5.328;2022-12-18T10:29:42;-2.30;99.90
18541;DHT22;9400;50.924;5.328;2022-12-18T10:32:15;-2.20;99.90
18541;DHT22;9400;50.924;5.328;2022-12-18T10:34:47;-2.40;99.90
18541;DHT22;9400;50.924;5.328;2022-12-18T10:37:17;-2.40;99.90
18541;DHT22;9400;50.924;5.328;2022-12-18T10:39:47;-2.30;99.90
18541;DHT22;9400;50.924;5.328;2022-12-18T10:42:31;-2.30;99.90
18541;DHT22;9400;50.924;5.328;2022-12-18T10:45:02;-2.20;99.90
18541;DHT22;9400;50.924;5.328;2022-12-18T10:47:31;-2.10;99.90
18541;DHT22;9400;50.924;5.328;2022-12-18T10:50:01;-2.00;99.90
18541;DHT22;9400;50.924;5.328;2022-12-18T10:52:32;-1.90;99.90
18541;DHT22;9400;50.924;5.328;2022-12-18T10:55:03;-1.80;99.90
18541;DHT22;9400;50.924;5.328;2022-12-18T10:57:34;-1.70;99.90
18541;DHT22;9400;50.924;5.328;2022-12-18T11:00:22;-1.60;99.90
18541;DHT22;9400;50.924;5.328;2022-12-18T11:02:51;-1.50;99.90
18541;DHT22;9400;50.924;5.328;2022-12-18T11:05:27;-1.50;99.90
18541;DHT22;9400;50.924;5.328;2022-12-18T11:07:56;-1.50;99.90
18541;DHT22;9400;50.924;5.328;2022-12-18T11:10:30;-1.50;99.90
18541;DHT22;9400;50.924;5.328;2022-12-18T11:13:15;-1.60;99.90
18541;DHT22;9400;50.924;5.328;2022-12-18T11:15:44;-1.50;99.90
18541;DHT22;9400;50.924;5.328;2022-12-18T11:18:18;-1.40;99.90
18541;DHT22;9400;50.924;5.328;2022-12-18T11:20:51;-1.30;99.90
18541;DHT22;9400;50.924;5.328;2022-12-18T11:23:21;-1.20;99.90
18541;DHT22;9400;50.924;5.328;2022-12-18T11:25:54;-1.10;99.90
18541;DHT22;9400;50.924;5.328;2022-12-18T11:28:34;-1.00;99.90
18541;DHT22;9400;50.924;5.328;2022-12-18T11:31:21;-1.10;99.90
18541;DHT22;9400;50.924;5.328;2022-12-18T11:34:00;-1.10;99.90
18541;DHT22;9400;50.924;5.328;2022-12-18T11:36:32;-0.90;99.90
18541;DHT22;9400;50.924;5.328;2022-12-18T11:39:05;-0.80;99.90
18541;DHT22;9400;50.924;5.328;2022-12-18T11:41:41;-0.70;99.90
18541;DHT22;9400;50.924;5.328;2022-12-18T11:44:37;-0.50;99.90
18541;DHT22;9400;50.924;5.328;2022-12-18T11:47:13;-0.40;99.90
18541;DHT22;9400;50.924;5.328;2022-12-18T11:49:47;-0.30;99.90
18541;DHT22;9400;50.924;5.328;2022-12-18T11:52:18;-0.20;99.90
18541;DHT22;9400;50.924;5.328;2022-12-18T11:54:47;-0.20;99.90
18541;DHT22;9400;50.924;5.328;2022-12-18T11:57:32;-0.10;99.90
18541;DHT22;9400;50.924;5.328;2022-12-18T12:00:07;-0.20;99.90
18541;DHT22;9400;50.924;5.328;2022-12-18T12:05:47;-0.10;99.90
18541;DHT22;9400;50.924;5.328;2022-12-18T12:08:21;-0.10;99.90
18541;DHT22;9400;50.924;5.328;2022-12-18T12:11:01;-0.20;99.90
18541;DHT22;9400;50.924;5.328;2022-12-18T12:13:39;-0.10;99.90
18541;DHT22;9400;50.924;5.328;2022-12-18T12:16:17;-0.20;99.90
18541;DHT22;9400;50.924;5.328;2022-12-18T12:18:58;-0.10;99.90
18541;DHT22;9400;50.924;5.328;2022-12-18T12:21:35;0.00;99.90
18541;DHT22;9400;50.924;5.328;2022-12-18T12:24:16;-0.20;99.90
18541;DHT22;9400;50.924;5.328;2022-12-18T12:26:56;-0.20;99.90
18541;DHT22;9400;50.924;5.328;2022-12-18T12:29:40;0.00;99.90
18541;DHT22;9400;50.924;5.328;2022-12-18T12:32:21;-0.10;99.90
18541;DHT22;9400;50.924;5.328;2022-12-18T12:34:59;-0.10;99.90
18541;DHT22;9400;50.924;5.328;2022-12-18T12:37:38;0.00;99.90
18541;DHT22;9400;50.924;5.328;2022-12-18T12:40:11;0.00;99.90
18541;DHT22;9400;50.924;5.328;2022-12-18T12:42:45;-0.10;99.90
18541;DHT22;9400;50.924;5.328;2022-12-18T12:45:39;0.00;99.90
18541;DHT22;9400;50.924;5.328;2022-12-18T12:48:17;0.00;99.90
18541;DHT22;9400;50.924;5.328;2022-12-18T12:50:46;0.10;99.90
18541;DHT22;9400;50.924;5.328;2022-12-18T12:53:23;0.30;99.90
18541;DHT22;9400;50.924;5.328;2022-12-18T12:55:54;0.30;99.90
18541;DHT22;9400;50.924;5.328;2022-12-18T12:58:31;0.30;99.90
18541;DHT22;9400;50.924;5.328;2022-12-18T13:01:09;0.40;99.90
18541;DHT22;9400;50.924;5.328;2022-12-18T13:03:50;0.50;99.90
18541;DHT22;9400;50.924;5.328;2022-12-18T13:06:28;0.50;99.90
18541;DHT22;9400;50.924;5.328;2022-12-18T13:09:02;0.60;99.90
18541;DHT22;9400;50.924;5.328;2022-12-18T13:11:37;0.80;99.90
18541;DHT22;9400;50.924;5.328;2022-12-18T13:14:25;0.80;99.90
18541;DHT22;9400;50.924;5.328;2022-12-18T13:17:16;0.90;99.90
18541;DHT22;9400;50.924;5.328;2022-12-18T13:19:47;1.00;99.90
18541;DHT22;9400;50.924;5.328;2022-12-18T13:22:24;1.00;99.90
18541;DHT22;9400;50.924;5.328;2022-12-18T13:24:52;0.90;99.90
18541;DHT22;9400;50.924;5.328;2022-12-18T13:27:45;0.90;99.90
18541;DHT22;9400;50.924;5.328;2022-12-18T13:30:41;0.80;99.90
18541;DHT22;9400;50.924;5.328;2022-12-18T13:33:38;0.80;99.90
18541;DHT22;9400;50.924;5.328;2022-12-18T13:36:14;1.00;99.90
18541;DHT22;9400;50.924;5.328;2022-12-18T13:38:43;0.90;99.90
18541;DHT22;9400;50.924;5.328;2022-12-18T13:41:27;0.90;99.90
18541;DHT22;9400;50.924;5.328;2022-12-18T13:43:55;0.90;99.90
18541;DHT22;9400;50.924;5.328;2022-12-18T13:46:27;0.90;99.90
18541;DHT22;9400;50.924;5.328;2022-12-18T13:49:00;0.80;99.90
18541;DHT22;9400;50.924;5.328;2022-12-18T13:51:31;0.80;99.90
18541;DHT22;9400;50.924;5.328;2022-12-18T13:54:01;0.80;99.90
18541;DHT22;9400;50.924;5.328;2022-12-18T13:56:32;0.80;99.90
18541;DHT22;9400;50.924;5.328;2022-12-18T13:59:09;0.70;99.90
18541;DHT22;9400;50.924;5.328;2022-12-18T14:01:43;0.80;99.90
18541;DHT22;9400;50.924;5.328;2022-12-18T14:04:19;0.80;99.90
18541;DHT22;9400;50.924;5.328;2022-12-18T14:06:47;0.80;99.90
18541;DHT22;9400;50.924;5.328;2022-12-18T14:09:18;0.80;99.90
18541;DHT22;9400;50.924;5.328;2022-12-18T14:11:49;0.90;99.90
18541;DHT22;9400;50.924;5.328;2022-12-18T14:14:17;0.80;99.90
18541;DHT22;9400;50.924;5.328;2022-12-18T14:16:47;0.80;99.90
18541;DHT22;9400;50.924;5.328;2022-12-18T14:19:17;0.90;99.90
18541;DHT22;9400;50.924;5.328;2022-12-18T14:21:48;0.90;99.90
18541;DHT22;9400;50.924;5.328;2022-12-18T14:24:18;0.80;99.90
18541;DHT22;9400;50.924;5.328;2022-12-18T14:26:48;0.90;99.90
18541;DHT22;9400;50.924;5.328;2022-12-18T14:29:22;1.00;99.90
18541;DHT22;9400;50.924;5.328;2022-12-18T14:32:11;1.00;99.90
18541;DHT22;9400;50.924;5.328;2022-12-18T14:34:41;1.00;99.90
18541;DHT22;9400;50.924;5.328;2022-12-18T14:37:10;1.10;99.90
18541;DHT22;9400;50.924;5.328;2022-12-18T14:39:39;1.10;99.90
18541;DHT22;9400;50.924;5.328;2022-12-18T14:42:11;1.10;99.90
18541;DHT22;9400;50.924;5.328;2022-12-18T14:44:38;1.10;99.90
18541;DHT22;9400;50.924;5.328;2022-12-18T14:47:14;1.20;99.90
18541;DHT22;9400;50.924;5.328;2022-12-18T14:49:43;1.30;99.90
18541;DHT22;9400;50.924;5.328;2022-12-18T14:52:21;1.30;99.90
18541;DHT22;9400;50.924;5.328;2022-12-18T14:54:50;1.40;99.90
18541;DHT22;9400;50.924;5.328;2022-12-18T14:57:22;1.50;99.90
18541;DHT22;9400;50.924;5.328;2022-12-18T14:59:51;1.50;99.90
18541;DHT22;9400;50.924;5.328;2022-12-18T15:02:22;1.60;99.90
18541;DHT22;9400;50.924;5.328;2022-12-18T15:05:02;1.50;99.90
18541;DHT22;9400;50.924;5.328;2022-12-18T15:07:43;1.60;99.90
18541;DHT22;9400;50.924;5.328;2022-12-18T15:10:14;1.60;99.90
18541;DHT22;9400;50.924;5.328;2022-12-18T15:12:42;1.50;99.90
18541;DHT22;9400;50.924;5.328;2022-12-18T15:15:44;1.50;99.90
18541;DHT22;9400;50.924;5.328;2022-12-18T15:18:13;1.50;99.90
18541;DHT22;9400;50.924;5.328;2022-12-18T15:20:45;1.50;99.90
18541;DHT22;9400;50.924;5.328;2022-12-18T15:23:18;1.50;99.90
18541;DHT22;9400;50.924;5.328;2022-12-18T15:25:47;1.40;99.90
18541;DHT22;9400;50.924;5.328;2022-12-18T15:28:23;1.50;99.90
18541;DHT22;9400;50.924;5.328;2022-12-18T15:31:03;1.50;99.90
18541;DHT22;9400;50.924;5.328;2022-12-18T15:33:34;1.40;99.90
18541;DHT22;9400;50.924;5.328;2022-12-18T15:36:05;1.50;99.90
18541;DHT22;9400;50.924;5.328;2022-12-18T15:38:33;1.50;99.90
18541;DHT22;9400;50.924;5.328;2022-12-18T15:41:01;1.50;99.90
18541;DHT22;9400;50.924;5.328;2022-12-18T15:43:29;1.50;99.90
18541;DHT22;9400;50.924;5.328;2022-12-18T15:46:03;1.50;99.90
18541;DHT22;9400;50.924;5.328;2022-12-18T15:48:33;1.50;99.90
18541;DHT22;9400;50.924;5.328;2022-12-18T15:51:02;1.50;99.90
18541;DHT22;9400;50.924;5.328;2022-12-18T15:53:32;1.50;99.90
18541;DHT22;9400;50.924;5.328;2022-12-18T15:56:00;1.60;99.90
18541;DHT22;9400;50.924;5.328;2022-12-18T15:58:44;1.60;99.90
18541;DHT22;9400;50.924;5.328;2022-12-18T16:01:12;1.60;99.90
18541;DHT22;9400;50.924;5.328;2022-12-18T16:03:41;1.60;99.90
18541;DHT22;9400;50.924;5.328;2022-12-18T16:06:10;1.60;99.90
18541;DHT22;9400;50.924;5.328;2022-12-18T16:08:37;1.50;99.90
18541;DHT22;9400;50.924;5.328;2022-12-18T16:11:05;1.60;99.90
18541;DHT22;9400;50.924;5.328;2022-12-18T16:13:35;1.60;99.90
18541;DHT22;9400;50.924;5.328;2022-12-18T16:16:03;1.60;99.90
18541;DHT22;9400;50.924;5.328;2022-12-18T16:18:31;1.60;99.90
18541;DHT22;9400;50.924;5.328;2022-12-18T16:20:59;1.60;99.90
18541;DHT22;9400;50.924;5.328;2022-12-18T16:23:28;1.60;99.90